createdAt,value
2018-01-31T01:52:26.399Z,9.32
2018-01-31T01:52:35.222Z,9.41
2018-01-31T01:53:35.480Z,9.39
2018-01-31T01:54:35.499Z,9.43
2018-01-31T01:55:35.264Z,9.39
2018-01-31T01:56:35.029Z,9.41
2018-01-31T01:57:35.306Z,9.41
2018-01-31T01:58:35.134Z,9.36
2018-01-31T01:59:35.080Z,9.43
2018-01-31T02:00:35.602Z,9.41
2018-01-31T02:01:35.116Z,9.43
2018-01-31T02:02:35.535Z,9.51
2018-01-31T02:03:35.149Z,9.32
2018-01-31T02:04:35.414Z,9.4
2018-01-31T02:05:35.430Z,9.4
2018-01-31T02:06:35.701Z,9.44
2018-01-31T02:07:35.772Z,9.54
2018-01-31T02:08:35.482Z,9.41
2018-01-31T02:09:35.499Z,9.39
2018-01-31T02:10:35.266Z,9.41
2018-01-31T02:11:35.280Z,9.62
2018-01-31T02:12:35.801Z,9.54
2018-01-31T02:13:35.816Z,9.43
2018-01-31T02:14:35.835Z,9.54
2018-01-31T02:15:35.606Z,9.54
2018-01-31T02:16:35.363Z,9.54
2018-01-31T02:17:35.932Z,9.65
2018-01-31T02:18:35.898Z,9.64
2018-01-31T02:19:35.664Z,9.62
2018-01-31T02:20:35.930Z,9.54
2018-01-31T02:21:35.947Z,9.48
2018-01-31T02:22:36.016Z,9.73
2018-01-31T02:23:35.733Z,9.69
2018-01-31T02:24:36.001Z,9.64
2018-01-31T02:25:35.529Z,9.64
2018-01-31T02:26:35.788Z,9.65
2018-01-31T02:27:36.053Z,9.84
2018-01-31T02:28:35.817Z,9.87
2018-01-31T02:29:35.836Z,9.83
2018-01-31T02:30:36.106Z,9.83
2018-01-31T02:31:35.616Z,9.65
2018-01-31T02:32:35.887Z,9.64
2018-01-31T02:33:36.159Z,9.73
2018-01-31T02:34:35.937Z,9.84
2018-01-31T02:35:36.185Z,9.79
2018-01-31T02:36:35.951Z,9.86
2018-01-31T02:37:36.296Z,9.8
2018-01-31T02:38:35.988Z,9.83
2018-01-31T02:39:36.254Z,9.86
2018-01-31T02:40:35.769Z,9.89
2018-01-31T02:41:36.039Z,9.89
2018-01-31T02:42:36.303Z,9.92
2018-01-31T02:43:36.071Z,9.91
2018-01-31T02:44:36.087Z,9.97
2018-01-31T02:45:36.357Z,10.07
2018-01-31T02:46:36.429Z,10.07
2018-01-31T02:47:36.496Z,10.16
2018-01-31T02:48:36.159Z,10.15
2018-01-31T02:49:36.424Z,10.1
2018-01-31T02:50:36.445Z,10.17
2018-01-31T02:51:35.954Z,10.16
2018-01-31T02:52:36.022Z,10.16
2018-01-31T02:53:36.498Z,10.09
2018-01-31T02:54:36.007Z,10.16
2018-01-31T02:55:36.533Z,10.15
2018-01-31T02:56:36.543Z,10.15
2018-01-31T02:57:36.561Z,9.98
2018-01-31T02:58:36.334Z,9.89
2018-01-31T02:59:36.595Z,9.83
2018-01-31T03:00:36.613Z,9.83
2018-01-31T03:01:36.381Z,9.95
2018-01-31T03:02:36.397Z,9.87
2018-01-31T03:03:36.161Z,10.02
2018-01-31T03:04:36.685Z,9.92
2018-01-31T03:05:36.698Z,10.02
2018-01-31T03:06:36.464Z,9.98
2018-01-31T03:07:36.533Z,10.02
2018-01-31T03:08:36.800Z,10.07
2018-01-31T03:09:36.762Z,10.13
2018-01-31T03:10:36.536Z,10.1
2018-01-31T03:11:36.298Z,10.1
2018-01-31T03:12:36.812Z,10.22
2018-01-31T03:13:36.588Z,10.19
2018-01-31T03:14:36.849Z,10.22
2018-01-31T03:15:36.869Z,10.26
2018-01-31T03:16:36.634Z,10.15
2018-01-31T03:17:36.901Z,10.05
2018-01-31T03:18:36.917Z,10.05
2018-01-31T03:19:36.436Z,10.02
2018-01-31T03:20:36.953Z,10.02
2018-01-31T03:21:36.991Z,10.05
2018-01-31T03:22:36.738Z,10.07
2018-01-31T03:23:38.105Z,10.05
2018-01-31T03:24:36.770Z,10.07
2018-01-31T03:25:37.036Z,10.16
2018-01-31T03:26:37.055Z,10.07
2018-01-31T03:27:36.823Z,10.2
2018-01-31T03:28:36.840Z,10.05
2018-01-31T03:29:36.869Z,10.02
2018-01-31T03:30:36.905Z,10.05
2018-01-31T03:31:37.162Z,10.1
2018-01-31T03:32:36.911Z,10.13
2018-01-31T03:33:37.228Z,10.07
2018-01-31T03:34:36.692Z,10.16
2018-01-31T03:35:36.711Z,10.2
2018-01-31T03:36:36.728Z,9.99
2018-01-31T03:37:36.744Z,10.02
2018-01-31T03:38:36.809Z,10.12
2018-01-31T03:39:37.278Z,10.02
2018-01-31T03:40:37.048Z,9.98
2018-01-31T03:41:37.322Z,9.98
2018-01-31T03:42:37.083Z,9.98
2018-01-31T03:43:37.108Z,9.97
2018-01-31T03:44:36.863Z,9.97
2018-01-31T03:45:37.391Z,10.01
2018-01-31T03:46:37.404Z,9.97
2018-01-31T03:47:37.422Z,9.89
2018-01-31T03:48:37.434Z,9.87
2018-01-31T03:49:37.450Z,9.86
2018-01-31T03:50:36.969Z,9.64
2018-01-31T03:51:37.232Z,9.5
2018-01-31T03:52:37.002Z,9.54
2018-01-31T03:53:37.571Z,9.43
2018-01-31T03:54:37.036Z,9.47
2018-01-31T03:55:37.561Z,9.54
2018-01-31T03:56:37.324Z,9.55
2018-01-31T03:57:37.339Z,9.44
2018-01-31T03:58:37.375Z,9.51
2018-01-31T03:59:37.425Z,9.54
2018-01-31T04:00:37.389Z,9.4
2018-01-31T04:01:37.659Z,9.37
2018-01-31T04:02:37.679Z,9.41
2018-01-31T04:03:37.442Z,9.36
2018-01-31T04:04:37.766Z,9.39
2018-01-31T04:05:37.732Z,9.43
2018-01-31T04:06:37.491Z,9.55
2018-01-31T04:07:37.506Z,9.44
2018-01-31T04:08:37.796Z,9.44
2018-01-31T04:09:37.543Z,9.54
2018-01-31T04:10:37.560Z,9.47
2018-01-31T04:11:37.327Z,9.43
2018-01-31T04:12:37.854Z,9.36
2018-01-31T04:13:37.610Z,9.34
2018-01-31T04:14:37.675Z,9.41
2018-01-31T04:15:37.900Z,9.48
2018-01-31T04:16:37.667Z,9.4
2018-01-31T04:17:37.430Z,9.47
2018-01-31T04:18:37.948Z,9.37
2018-01-31T04:19:37.962Z,9.4
2018-01-31T04:20:37.979Z,9.4
2018-01-31T04:21:37.998Z,9.25
2018-01-31T04:22:38.012Z,9.16
2018-01-31T04:23:37.527Z,9.19
2018-01-31T04:24:38.050Z,9.21
2018-01-31T04:25:38.063Z,9.22
2018-01-31T04:26:38.082Z,9.29
2018-01-31T04:27:38.096Z,9.18
2018-01-31T04:28:38.113Z,9.19
2018-01-31T04:29:38.183Z,9.1
2018-01-31T04:30:37.643Z,9.18
2018-01-31T04:31:38.163Z,9.02
2018-01-31T04:32:37.930Z,9
2018-01-31T04:33:37.950Z,8.97
2018-01-31T04:34:38.072Z,9.02
2018-01-31T04:35:38.234Z,9.02
2018-01-31T04:36:38.015Z,9.22
2018-01-31T04:37:38.018Z,9.14
2018-01-31T04:38:38.281Z,9
2018-01-31T04:39:38.297Z,9
2018-01-31T04:40:38.314Z,8.97
2018-01-31T04:41:38.331Z,8.97
2018-01-31T04:42:38.350Z,9.03
2018-01-31T04:43:38.126Z,9.03
2018-01-31T04:44:38.181Z,8.92
2018-01-31T04:45:37.897Z,9.03
2018-01-31T04:46:38.420Z,8.95
2018-01-31T04:47:38.444Z,8.79
2018-01-31T04:48:38.450Z,8.95
2018-01-31T04:49:38.463Z,8.97
2018-01-31T04:50:38.236Z,9.03
2018-01-31T04:51:38.247Z,8.82
2018-01-31T04:52:38.264Z,8.91
2018-01-31T04:53:38.536Z,9
2018-01-31T04:54:38.047Z,8.92
2018-01-31T04:55:38.072Z,8.91
2018-01-31T04:56:38.330Z,8.85
2018-01-31T04:57:38.363Z,8.89
2018-01-31T04:58:38.367Z,8.88
2018-01-31T04:59:38.683Z,8.88
2018-01-31T05:00:38.402Z,8.79
2018-01-31T05:01:38.420Z,8.76
2018-01-31T05:02:38.183Z,8.85
2018-01-31T05:03:38.451Z,8.92
2018-01-31T05:04:38.468Z,9
2018-01-31T05:05:38.233Z,8.95
2018-01-31T05:06:38.500Z,8.94
2018-01-31T05:07:38.265Z,8.97
2018-01-31T05:08:38.784Z,8.92
2018-01-31T05:09:38.551Z,8.78
2018-01-31T05:10:38.569Z,8.76
2018-01-31T05:11:38.832Z,8.81
2018-01-31T05:12:38.599Z,8.7
2018-01-31T05:13:38.365Z,8.79
2018-01-31T05:14:38.631Z,8.87
2018-01-31T05:15:38.700Z,9.03
2018-01-31T05:16:38.664Z,8.88
2018-01-31T05:17:38.932Z,8.73
2018-01-31T05:18:38.456Z,8.78
2018-01-31T05:19:38.714Z,8.76
2018-01-31T05:20:39.022Z,8.84
2018-01-31T05:21:38.496Z,8.81
2018-01-31T05:22:38.763Z,8.7
2018-01-31T05:23:38.783Z,8.73
2018-01-31T05:24:38.802Z,8.69
2018-01-31T05:25:38.567Z,8.71
2018-01-31T05:26:38.835Z,8.84
2018-01-31T05:27:38.855Z,8.67
2018-01-31T05:28:38.870Z,8.79
2018-01-31T05:29:38.891Z,8.95
2018-01-31T05:30:39.305Z,8.99
2018-01-31T05:31:38.962Z,8.95
2018-01-31T05:32:38.943Z,9.06
2018-01-31T05:33:38.949Z,9.11
2018-01-31T05:34:38.977Z,9.14
2018-01-31T05:35:38.984Z,9.08
2018-01-31T05:36:39.005Z,9.19
2018-01-31T05:37:39.275Z,9.18
2018-01-31T05:38:38.784Z,9.22
2018-01-31T05:39:39.062Z,9.31
2018-01-31T05:40:39.073Z,9.31
2018-01-31T05:41:39.092Z,9.25
2018-01-31T05:42:39.353Z,9.31
2018-01-31T05:43:39.121Z,9.21
2018-01-31T05:44:39.416Z,9.29
2018-01-31T05:45:39.458Z,9.31
2018-01-31T05:46:39.430Z,9.08
2018-01-31T05:47:38.937Z,9.04
2018-01-31T05:48:39.508Z,9.04
2018-01-31T05:49:39.478Z,8.99
2018-01-31T05:50:39.494Z,8.97
2018-01-31T05:51:39.259Z,8.94
2018-01-31T05:52:39.527Z,8.99
2018-01-31T05:53:39.040Z,9.03
2018-01-31T05:54:39.056Z,9.03
2018-01-31T05:55:39.093Z,9.08
2018-01-31T05:56:39.598Z,9
2018-01-31T05:57:39.358Z,9
2018-01-31T05:58:39.385Z,8.97
2018-01-31T05:59:39.392Z,8.92
2018-01-31T06:00:39.457Z,8.82
2018-01-31T06:01:39.426Z,8.94
2018-01-31T06:02:39.442Z,8.82
2018-01-31T06:03:39.459Z,8.76
2018-01-31T06:04:39.730Z,8.78
2018-01-31T06:05:39.948Z,8.81
2018-01-31T06:06:39.511Z,8.79
2018-01-31T06:07:39.526Z,8.91
2018-01-31T06:08:39.547Z,8.76
2018-01-31T06:09:39.833Z,8.81
2018-01-31T06:10:39.381Z,8.92
2018-01-31T06:11:39.340Z,9
2018-01-31T06:12:39.864Z,8.81
2018-01-31T06:13:39.627Z,8.84
2018-01-31T06:14:39.642Z,8.81
2018-01-31T06:15:39.960Z,8.88
2018-01-31T06:16:39.676Z,8.84
2018-01-31T06:17:39.444Z,8.97
2018-01-31T06:18:39.711Z,8.95
2018-01-31T06:19:39.747Z,8.99
2018-01-31T06:20:39.998Z,8.97
2018-01-31T06:21:39.763Z,8.95
2018-01-31T06:22:39.779Z,8.99
2018-01-31T06:23:39.821Z,9.14
2018-01-31T06:24:40.065Z,8.95
2018-01-31T06:25:39.880Z,9.16
2018-01-31T06:26:39.845Z,9.06
2018-01-31T06:27:39.862Z,9.03
2018-01-31T06:28:39.883Z,8.99
2018-01-31T06:29:40.147Z,9.02
2018-01-31T06:30:39.961Z,9.03
2018-01-31T06:31:39.932Z,9
2018-01-31T06:32:39.944Z,9
2018-01-31T06:33:39.711Z,8.97
2018-01-31T06:34:39.984Z,8.95
2018-01-31T06:35:39.996Z,9
2018-01-31T06:36:40.265Z,8.99
2018-01-31T06:37:40.282Z,9.08
2018-01-31T06:38:39.796Z,9.13
2018-01-31T06:39:40.317Z,8.95
2018-01-31T06:40:39.831Z,9.03
2018-01-31T06:41:39.847Z,8.91
2018-01-31T06:42:40.115Z,8.89
2018-01-31T06:43:40.405Z,8.91
2018-01-31T06:44:40.399Z,8.79
2018-01-31T06:45:40.478Z,8.95
2018-01-31T06:46:40.187Z,8.66
2018-01-31T06:47:39.947Z,8.63
2018-01-31T06:48:39.962Z,8.79
2018-01-31T06:49:39.983Z,8.69
2018-01-31T06:50:40.249Z,8.69
2018-01-31T06:51:40.517Z,8.79
2018-01-31T06:52:40.530Z,8.74
2018-01-31T06:53:40.054Z,8.71
2018-01-31T06:54:40.078Z,8.67
2018-01-31T06:55:40.586Z,8.6
2018-01-31T06:56:40.096Z,8.71
2018-01-31T06:57:40.617Z,8.63
2018-01-31T06:58:40.380Z,8.7
2018-01-31T06:59:40.398Z,8.64
2018-01-31T07:00:40.467Z,8.61
2018-01-31T07:01:40.429Z,8.53
2018-01-31T07:02:40.449Z,8.51
2018-01-31T07:03:40.465Z,8.69
2018-01-31T07:04:40.734Z,8.64
2018-01-31T07:05:40.551Z,8.52
2018-01-31T07:06:40.767Z,8.49
2018-01-31T07:07:40.788Z,8.46
2018-01-31T07:08:40.612Z,8.61
2018-01-31T07:09:40.312Z,8.66
2018-01-31T07:10:40.830Z,8.7
2018-01-31T07:11:40.851Z,8.7
2018-01-31T07:12:40.610Z,8.66
2018-01-31T07:13:40.628Z,8.61
2018-01-31T07:14:40.642Z,8.6
2018-01-31T07:15:40.961Z,8.58
2018-01-31T07:16:40.675Z,8.48
2018-01-31T07:17:40.947Z,8.45
2018-01-31T07:18:40.709Z,8.51
2018-01-31T07:19:40.729Z,8.42
2018-01-31T07:20:40.792Z,8.28
2018-01-31T07:21:41.011Z,8.34
2018-01-31T07:22:40.526Z,8.45
2018-01-31T07:23:40.541Z,8.33
2018-01-31T07:24:40.809Z,8.28
2018-01-31T07:25:40.828Z,8.37
2018-01-31T07:26:40.593Z,8.26
2018-01-31T07:27:40.911Z,8.28
2018-01-31T07:28:41.125Z,8.41
2018-01-31T07:29:40.640Z,8.24
2018-01-31T07:30:41.157Z,8.12
2018-01-31T07:31:40.671Z,8.15
2018-01-31T07:32:40.686Z,8.13
2018-01-31T07:33:40.703Z,8.15
2018-01-31T07:34:40.721Z,8.15
2018-01-31T07:35:41.293Z,8.1
2018-01-31T07:36:40.754Z,8.1
2018-01-31T07:37:41.278Z,8.06
2018-01-31T07:38:41.043Z,8.09
2018-01-31T07:39:41.055Z,8.13
2018-01-31T07:40:41.127Z,8.06
2018-01-31T07:41:41.345Z,8.05
2018-01-31T07:42:41.355Z,7.97
2018-01-31T07:43:40.867Z,8.1
2018-01-31T07:44:41.410Z,8.08
2018-01-31T07:45:41.151Z,8.12
2018-01-31T07:46:41.169Z,8.15
2018-01-31T07:47:40.934Z,8.12
2018-01-31T07:48:40.950Z,8.18
2018-01-31T07:49:41.475Z,8.16
2018-01-31T07:50:41.533Z,8.2
2018-01-31T07:51:41.251Z,8.3
2018-01-31T07:52:41.016Z,8.37
2018-01-31T07:53:41.280Z,8.33
2018-01-31T07:54:41.297Z,8.34
2018-01-31T07:55:41.563Z,8.51
2018-01-31T07:56:41.339Z,8.58
2018-01-31T07:57:41.601Z,8.64
2018-01-31T07:58:41.363Z,8.6
2018-01-31T07:59:41.385Z,8.49
2018-01-31T08:00:41.150Z,8.55
2018-01-31T08:01:41.414Z,8.49
2018-01-31T08:02:41.681Z,8.53
2018-01-31T08:03:41.701Z,8.67
2018-01-31T08:04:41.464Z,8.73
2018-01-31T08:05:41.278Z,8.82
2018-01-31T08:06:41.757Z,8.81
2018-01-31T08:07:41.518Z,8.85
2018-01-31T08:08:41.529Z,8.81
2018-01-31T08:09:41.797Z,8.76
2018-01-31T08:10:41.562Z,8.91
2018-01-31T08:11:41.579Z,8.97
2018-01-31T08:12:41.850Z,9
2018-01-31T08:13:41.619Z,9.08
2018-01-31T08:14:41.381Z,8.95
2018-01-31T08:15:41.904Z,9.03
2018-01-31T08:16:41.416Z,9
2018-01-31T08:17:41.431Z,9.02
2018-01-31T08:18:41.698Z,9.02
2018-01-31T08:19:41.464Z,9.11
2018-01-31T08:20:41.533Z,9.08
2018-01-31T08:21:41.753Z,9.16
2018-01-31T08:22:41.775Z,9.18
2018-01-31T08:23:41.536Z,9.28
2018-01-31T08:24:41.551Z,9.22
2018-01-31T08:25:42.122Z,9.32
2018-01-31T08:26:41.836Z,9.25
2018-01-31T08:27:41.651Z,9.11
2018-01-31T08:28:42.122Z,9
2018-01-31T08:29:42.142Z,9.1
2018-01-31T08:30:42.413Z,9.21
2018-01-31T08:31:41.923Z,9.25
2018-01-31T08:32:41.689Z,9.32
2018-01-31T08:33:41.956Z,9.48
2018-01-31T08:34:41.722Z,9.55
2018-01-31T08:35:42.044Z,9.56
2018-01-31T08:36:42.263Z,9.56
2018-01-31T08:37:42.281Z,9.48
2018-01-31T08:38:42.305Z,9.48
2018-01-31T08:39:42.072Z,9.54
2018-01-31T08:40:42.334Z,9.59
2018-01-31T08:41:42.101Z,9.68
2018-01-31T08:42:42.371Z,9.65
2018-01-31T08:43:42.406Z,9.72
2018-01-31T08:44:42.149Z,9.65
2018-01-31T08:45:41.914Z,9.69
2018-01-31T08:46:41.934Z,9.74
2018-01-31T08:47:41.949Z,9.82
2018-01-31T08:48:41.965Z,9.83
2018-01-31T08:49:41.984Z,9.91
2018-01-31T08:50:42.198Z,9.87
2018-01-31T08:51:42.274Z,9.98
2018-01-31T08:52:42.051Z,10.23
2018-01-31T08:53:42.307Z,10.25
2018-01-31T08:54:42.329Z,10.22
2018-01-31T08:55:42.339Z,10.3
2018-01-31T08:56:42.366Z,10.33
2018-01-31T08:57:42.127Z,10.35
2018-01-31T08:58:42.146Z,10.26
2018-01-31T08:59:42.664Z,10.12
2018-01-31T09:00:42.464Z,10.28
2018-01-31T09:01:42.700Z,10.46
2018-01-31T09:02:42.213Z,10.34
2018-01-31T09:03:42.232Z,10.2
2018-01-31T09:04:42.754Z,10.16
2018-01-31T09:05:42.570Z,10.33
2018-01-31T09:06:42.544Z,10.23
2018-01-31T09:07:42.556Z,10.35
2018-01-31T09:08:42.577Z,10.48
2018-01-31T09:09:42.591Z,10.49
2018-01-31T09:10:42.860Z,10.48
2018-01-31T09:11:42.882Z,10.75
2018-01-31T09:12:42.684Z,10.71
2018-01-31T09:13:42.413Z,10.75
2018-01-31T09:14:42.717Z,10.84
2018-01-31T09:15:42.448Z,11.07
2018-01-31T09:16:42.721Z,11.05
2018-01-31T09:17:42.988Z,11.04
2018-01-31T09:18:42.505Z,11.22
2018-01-31T09:19:42.773Z,11.29
2018-01-31T09:20:42.592Z,11.12
2018-01-31T09:21:43.160Z,11.18
2018-01-31T09:22:42.877Z,10.93
2018-01-31T09:23:42.910Z,10.9
2018-01-31T09:24:42.874Z,10.61
2018-01-31T09:25:42.897Z,10.64
2018-01-31T09:26:43.156Z,10.76
2018-01-31T09:27:42.925Z,10.89
2018-01-31T09:28:42.943Z,10.61
2018-01-31T09:29:42.708Z,10.51
2018-01-31T09:30:42.979Z,10.67
2018-01-31T09:31:42.747Z,10.74
2018-01-31T09:32:43.015Z,10.93
2018-01-31T09:33:43.034Z,11.11
2018-01-31T09:34:42.804Z,11.22
2018-01-31T09:35:43.080Z,11.45
2018-01-31T09:36:43.343Z,11.65
2018-01-31T09:37:42.962Z,11.83
2018-01-31T09:38:42.879Z,12.02
2018-01-31T09:39:43.403Z,11.83
2018-01-31T09:40:43.177Z,11.73
2018-01-31T09:41:43.188Z,11.73
2018-01-31T09:42:43.310Z,11.65
2018-01-31T09:43:43.512Z,11.84
2018-01-31T09:44:43.250Z,11.88
2018-01-31T09:45:43.270Z,11.99
2018-01-31T09:46:43.037Z,12
2018-01-31T09:47:43.636Z,11.99
2018-01-31T09:48:43.078Z,11.94
2018-01-31T09:49:43.348Z,12.03
2018-01-31T09:50:43.622Z,12.07
2018-01-31T09:51:43.646Z,12.27
2018-01-31T09:52:43.208Z,12.09
2018-01-31T09:53:43.698Z,11.8
2018-01-31T09:54:43.445Z,11.68
2018-01-31T09:55:43.470Z,11.65
2018-01-31T09:56:43.485Z,11.81
2018-01-31T09:57:43.759Z,11.87
2018-01-31T09:58:43.781Z,11.77
2018-01-31T09:59:43.802Z,11.69
2018-01-31T10:00:43.565Z,11.88
2018-01-31T10:01:43.584Z,12.04
2018-01-31T10:02:43.356Z,11.9
2018-01-31T10:03:43.625Z,11.81
2018-01-31T10:04:43.648Z,11.78
2018-01-31T10:05:43.670Z,12
2018-01-31T10:06:43.687Z,12.17
2018-01-31T10:07:43.760Z,12.1
2018-01-31T10:08:43.474Z,12.29
2018-01-31T10:09:43.746Z,12.37
2018-01-31T10:10:43.515Z,12.32
2018-01-31T10:11:44.037Z,12.04
2018-01-31T10:12:43.802Z,12.31
2018-01-31T10:13:43.838Z,12.58
2018-01-31T10:14:44.097Z,12.68
2018-01-31T10:15:44.116Z,12.76
2018-01-31T10:16:43.633Z,13.04
2018-01-31T10:17:44.163Z,13.35
2018-01-31T10:18:43.677Z,13.56
2018-01-31T10:19:43.697Z,13.83
2018-01-31T10:20:44.222Z,14.04
2018-01-31T10:21:43.741Z,13.78
2018-01-31T10:22:44.115Z,14.07
2018-01-31T10:23:44.287Z,13.99
2018-01-31T10:24:43.806Z,14
2018-01-31T10:25:44.332Z,14.03
2018-01-31T10:26:44.370Z,13.83
2018-01-31T10:27:44.375Z,13.86
2018-01-31T10:28:44.395Z,13.85
2018-01-31T10:29:43.928Z,14.07
2018-01-31T10:30:44.193Z,14.35
2018-01-31T10:31:44.485Z,14.6
2018-01-31T10:32:44.240Z,14.88
2018-01-31T10:33:44.010Z,15.04
2018-01-31T10:34:44.546Z,15.18
2018-01-31T10:35:44.314Z,15.18
2018-01-31T10:36:44.354Z,15.25
2018-01-31T10:37:44.361Z,15.29
2018-01-31T10:38:44.439Z,15.57
2018-01-31T10:39:44.413Z,15.84
2018-01-31T10:40:44.441Z,16.23
2018-01-31T10:41:44.475Z,16.54
2018-01-31T10:42:44.492Z,16.79
2018-01-31T10:43:44.268Z,16.58
2018-01-31T10:44:44.294Z,16.86
2018-01-31T10:45:44.322Z,16.75
2018-01-31T10:46:44.347Z,17.01
2018-01-31T10:47:44.377Z,17.33
2018-01-31T10:48:45.015Z,17.38
2018-01-31T10:49:44.683Z,17.74
2018-01-31T10:50:44.714Z,18.18
2018-01-31T10:51:44.741Z,17.83
2018-01-31T10:52:44.790Z,17.67
2018-01-31T10:57:30.606Z,18.4
2018-01-31T10:57:39.975Z,18.33
2018-01-31T10:58:40.002Z,18.38
2018-01-31T10:59:40.279Z,18.41
2018-01-31T11:00:40.108Z,18.56
2018-01-31T11:01:39.838Z,18.65
2018-01-31T11:02:40.372Z,18.68
2018-01-31T11:03:40.151Z,19.04
2018-01-31T11:04:40.179Z,19.33
2018-01-31T11:05:40.444Z,19.39
2018-01-31T11:06:39.979Z,19.22
2018-01-31T11:07:40.017Z,18.98
2018-01-31T11:08:40.604Z,18.93
2018-01-31T11:09:40.576Z,19.04
2018-01-31T11:10:40.353Z,18.78
2018-01-31T11:11:40.642Z,18.5
2018-01-31T11:12:40.676Z,18.15
2018-01-31T11:13:40.444Z,18.08
2018-01-31T11:14:40.474Z,17.68
2018-01-31T11:15:40.543Z,18.04
2018-01-31T11:16:40.762Z,18.04
2018-01-31T11:17:40.307Z,18.03
2018-01-31T11:18:40.582Z,17.95
2018-01-31T11:19:40.360Z,18.08
2018-01-31T11:20:40.641Z,18.16
2018-01-31T11:21:40.918Z,18.01
2018-01-31T11:22:40.947Z,17.49
2018-01-31T11:23:40.470Z,17.42
2018-01-31T11:24:40.498Z,17.67
2018-01-31T11:25:41.030Z,17.65
2018-01-31T11:26:41.104Z,17.86
2018-01-31T11:27:40.834Z,18.16
2018-01-31T11:28:40.858Z,17.95
2018-01-31T11:29:40.885Z,18.23
2018-01-31T11:30:40.662Z,18.23
2018-01-31T11:31:40.945Z,18.52
2018-01-31T11:32:41.223Z,18.83
2018-01-31T11:33:41.009Z,18.93
2018-01-31T11:34:41.027Z,19.04
2018-01-31T11:35:40.807Z,19.3
2018-01-31T11:36:41.085Z,19.55
2018-01-31T11:37:41.117Z,19.74
2018-01-31T11:38:41.402Z,19.59
2018-01-31T11:39:41.175Z,19.47
2018-01-31T11:40:41.195Z,19.64
2018-01-31T11:41:41.490Z,19.52
2018-01-31T11:42:41.009Z,19.96
2018-01-31T11:43:41.038Z,20.21
2018-01-31T11:44:41.590Z,20.52
2018-01-31T11:45:41.603Z,20.85
2018-01-31T11:46:41.637Z,21.03
2018-01-31T11:47:41.411Z,21.33
2018-01-31T11:48:41.194Z,21.72
2018-01-31T11:49:41.737Z,21.85
2018-01-31T11:50:41.508Z,21.93
2018-01-31T11:51:41.797Z,22.2
2018-01-31T11:52:41.318Z,22.99
2018-01-31T11:53:41.607Z,23.23
2018-01-31T11:54:41.382Z,23.51
2018-01-31T11:55:41.673Z,23.96
2018-01-31T11:56:41.702Z,24.24
2018-01-31T11:57:41.474Z,23.86
2018-01-31T11:58:41.766Z,23.8
2018-01-31T11:59:41.801Z,24.05
2018-01-31T12:00:41.585Z,24.02
2018-01-31T12:01:41.621Z,24.33
2018-01-31T12:02:41.906Z,24.6
2018-01-31T12:03:42.211Z,24.65
2018-01-31T12:04:41.969Z,24.73
2018-01-31T12:05:42.252Z,24.8
2018-01-31T12:06:42.052Z,24.93
2018-01-31T12:07:42.322Z,24.78
2018-01-31T12:08:41.851Z,24.01
2018-01-31T12:09:42.152Z,24.06
2018-01-31T12:10:42.170Z,24.14
2018-01-31T12:11:42.206Z,24.8
2018-01-31T12:12:42.239Z,25.08
2018-01-31T12:13:42.527Z,24.08
2018-01-31T12:14:42.306Z,22.84
2018-01-31T12:15:42.344Z,22.81
2018-01-31T12:16:42.626Z,22.78
2018-01-31T12:17:42.666Z,22.63
2018-01-31T12:18:42.444Z,22.93
2018-01-31T12:19:42.219Z,23.25
2018-01-31T12:20:42.252Z,23.24
2018-01-31T12:21:42.541Z,23.27
2018-01-31T12:22:42.570Z,23.8
2018-01-31T12:23:42.602Z,24.05
2018-01-31T12:24:42.383Z,24.14
2018-01-31T12:25:42.920Z,24.69
2018-01-31T12:26:42.965Z,24.81
2018-01-31T12:27:42.762Z,24.8
2018-01-31T12:28:42.774Z,24.45
2018-01-31T12:29:42.801Z,23.95
2018-01-31T12:30:42.582Z,24.2
2018-01-31T12:31:42.866Z,24.14
2018-01-31T12:32:42.899Z,23.95
2018-01-31T12:33:43.186Z,23.56
2018-01-31T12:34:42.712Z,23.86
2018-01-31T12:35:43.006Z,23.92
2018-01-31T12:36:43.287Z,24.18
2018-01-31T12:37:43.065Z,24.61
2018-01-31T12:38:43.343Z,24.47
2018-01-31T12:39:43.129Z,24.1
2018-01-31T12:40:43.158Z,23.87
2018-01-31T12:41:43.434Z,23.69
2018-01-31T12:42:43.473Z,23.27
2018-01-31T12:43:43.285Z,22.84
2018-01-31T12:44:43.281Z,23.32
2018-01-31T12:45:43.569Z,24.01
2018-01-31T12:46:43.349Z,24.51
2018-01-31T12:47:43.632Z,24.91
2018-01-31T12:48:43.413Z,25.11
2018-01-31T12:49:43.793Z,25.59
2018-01-31T12:50:43.729Z,26.05
2018-01-31T12:51:43.507Z,26.38
2018-01-31T12:52:43.792Z,26.51
2018-01-31T12:53:43.575Z,26.38
2018-01-31T12:54:43.918Z,26.13
2018-01-31T12:55:43.646Z,26.1
2018-01-31T12:56:43.676Z,25.46
2018-01-31T12:57:43.461Z,24.47
2018-01-31T12:58:43.740Z,24.32
2018-01-31T12:59:43.768Z,24.32
2018-01-31T13:00:43.547Z,24.06
2018-01-31T13:01:43.578Z,24.03
2018-01-31T13:02:43.610Z,23.91
2018-01-31T13:03:43.893Z,23.81
2018-01-31T13:04:43.925Z,23.78
2018-01-31T13:05:43.953Z,23.78
2018-01-31T13:06:43.989Z,23.44
2018-01-31T13:07:44.012Z,23.18
2018-01-31T13:08:44.296Z,23.27
2018-01-31T13:09:44.144Z,23.21
2018-01-31T13:10:44.105Z,23.25
2018-01-31T13:11:44.393Z,23.25
2018-01-31T13:12:44.152Z,23.28
2018-01-31T13:13:44.193Z,23.31
2018-01-31T13:14:44.521Z,23.28
2018-01-31T13:15:44.484Z,23.21
2018-01-31T13:16:44.268Z,22.55
2018-01-31T13:17:44.289Z,21.83
2018-01-31T13:18:44.592Z,21.57
2018-01-31T13:19:44.615Z,21.72
2018-01-31T13:20:44.401Z,21.4
2018-01-31T13:21:44.427Z,21.09
2018-01-31T13:22:44.440Z,20.92
2018-01-31T13:23:44.468Z,20.77
2018-01-31T13:24:44.297Z,20.41
2018-01-31T13:25:44.782Z,20.34
2018-01-31T13:26:44.559Z,20.22
2018-01-31T13:27:44.610Z,19.92
2018-01-31T13:28:44.621Z,19.91
2018-01-31T13:29:44.649Z,19.67
2018-01-31T13:30:44.918Z,19.74
2018-01-31T13:31:44.694Z,19.91
2018-01-31T13:32:44.724Z,19.86
2018-01-31T13:33:44.745Z,19.64
2018-01-31T13:34:45.130Z,19.84
2018-01-31T13:35:45.052Z,19.73
2018-01-31T13:36:45.076Z,19.64
2018-01-31T13:37:44.598Z,19.51
2018-01-31T13:38:45.126Z,19.15
2018-01-31T13:39:45.204Z,18.99
2018-01-31T13:40:44.675Z,18.83
2018-01-31T13:41:44.953Z,18.83
2018-01-31T13:42:44.978Z,18.89
2018-01-31T13:43:45.257Z,18.9
2018-01-31T13:44:45.283Z,19.27
2018-01-31T13:45:45.308Z,19.37
2018-01-31T13:46:45.080Z,19.24
2018-01-31T13:47:45.107Z,19.16
2018-01-31T13:48:44.878Z,19.56
2018-01-31T13:49:45.157Z,19.79
2018-01-31T13:50:45.443Z,20.52
2018-01-31T13:51:44.958Z,21.03
2018-01-31T13:52:45.235Z,21.33
2018-01-31T13:53:45.516Z,21.32
2018-01-31T13:54:45.439Z,21.3
2018-01-31T13:55:45.318Z,21.07
2018-01-31T13:56:45.596Z,20.96
2018-01-31T13:57:45.372Z,21.02
2018-01-31T13:58:45.396Z,21.02
2018-01-31T13:59:45.677Z,20.82
2018-01-31T14:00:45.705Z,20.62
2018-01-31T14:01:45.476Z,20.43
2018-01-31T14:02:45.507Z,20.22
2018-01-31T14:03:45.530Z,20.29
2018-01-31T14:04:45.355Z,20.25
2018-01-31T14:05:45.580Z,20.02
2018-01-31T14:06:45.608Z,19.89
2018-01-31T14:07:45.891Z,19.95
2018-01-31T14:08:45.915Z,19.73
2018-01-31T14:09:45.487Z,19.88
2018-01-31T14:10:45.969Z,19.85
2018-01-31T14:11:45.738Z,19.89
2018-01-31T14:12:46.016Z,19.86
2018-01-31T14:13:45.789Z,20.07
2018-01-31T14:14:45.563Z,20.02
2018-01-31T14:15:46.091Z,19.96
2018-01-31T14:16:45.616Z,20.11
2018-01-31T14:17:45.893Z,20
2018-01-31T14:18:45.918Z,19.76
2018-01-31T14:19:46.247Z,19.37
2018-01-31T14:20:45.719Z,19.21
2018-01-31T14:21:45.993Z,19.11
2018-01-31T14:22:46.271Z,19.04
2018-01-31T14:23:46.051Z,19.07
2018-01-31T14:40:30.316Z,16.04
2018-01-31T14:41:29.771Z,15.98
2018-01-31T14:42:29.787Z,15.88
2018-01-31T14:43:30.309Z,15.75
2018-01-31T14:44:30.328Z,15.61
2018-01-31T14:45:29.837Z,15.4
2018-01-31T14:46:30.109Z,15.24
2018-01-31T14:47:30.378Z,15.04
2018-01-31T14:48:30.150Z,15.02
2018-01-31T14:49:30.164Z,15.04
2018-01-31T14:50:30.437Z,15.02
2018-01-31T14:51:29.950Z,15.14
2018-01-31T14:52:30.219Z,15.25
2018-01-31T14:53:30.496Z,15.33
2018-01-31T14:54:30.513Z,15.36
2018-01-31T14:55:31.399Z,15.25
2018-01-31T14:56:30.554Z,15.19
2018-01-31T14:57:30.324Z,15.17
2018-01-31T14:58:30.343Z,15.22
2018-01-31T14:59:30.369Z,15.25
2018-01-31T15:00:30.405Z,15.21
2018-01-31T15:01:30.408Z,15.35
2018-01-31T15:02:30.427Z,15.31
2018-01-31T15:03:30.438Z,15.35
2018-01-31T15:04:30.220Z,15.36
2018-01-31T15:05:30.749Z,15.37
2018-01-31T15:06:30.758Z,15.49
2018-01-31T15:07:30.539Z,15.49
2018-01-31T15:08:30.806Z,15.52
2018-01-31T15:09:30.578Z,15.46
2018-01-31T15:10:30.649Z,15.49
2018-01-31T15:11:30.874Z,15.54
2018-01-31T15:12:30.637Z,15.67
2018-01-31T15:13:30.656Z,15.75
2018-01-31T15:14:30.676Z,15.84
2018-01-31T15:15:30.963Z,15.83
2018-01-31T15:16:30.980Z,15.84
2018-01-31T15:17:31.009Z,15.94
2018-01-31T15:18:30.790Z,15.7